createdAt,value
2023-12-28T00:01:19.783Z,95.50
2023-12-28T00:03:48.053Z,95.70
2023-12-28T00:06:18.068Z,95.70
2023-12-28T00:08:50.650Z,95.80
2023-12-28T00:11:24.710Z,95.80
2023-12-28T00:13:52.618Z,95.80
2023-12-28T00:16:20.520Z,95.90
2023-12-28T00:18:48.532Z,95.90
2023-12-28T00:21:17.822Z,95.80
2023-12-28T00:23:45.770Z,95.80
2023-12-28T00:26:13.809Z,95.90
2023-12-28T00:28:41.745Z,95.80
2023-12-28T00:31:11.524Z,95.80
2023-12-28T00:33:39.536Z,95.90
2023-12-28T00:36:07.888Z,95.80
2023-12-28T00:38:37.156Z,95.80
2023-12-28T00:41:05.285Z,95.80
2023-12-28T00:43:33.338Z,95.80
2023-12-28T00:46:01.224Z,95.80
2023-12-28T00:48:29.777Z,95.70
2023-12-28T00:50:59.727Z,96.60
2023-12-28T00:53:27.277Z,95.70
2023-12-28T00:55:56.612Z,95.70
2023-12-28T00:58:24.659Z,95.40
2023-12-28T01:00:54.673Z,95.70
2023-12-28T01:03:22.784Z,95.60
2023-12-28T01:05:53.658Z,95.60
2023-12-28T01:08:21.605Z,95.70
2023-12-28T01:10:49.725Z,95.60
2023-12-28T01:13:19.388Z,95.50
2023-12-28T01:15:47.418Z,95.60
2023-12-28T01:18:16.036Z,95.80
2023-12-28T01:20:44.172Z,95.50
2023-12-28T01:23:12.181Z,95.50
2023-12-28T01:25:40.147Z,95.80
2023-12-28T01:28:08.094Z,95.50
2023-12-28T01:30:37.398Z,95.50
2023-12-28T01:33:05.983Z,95.50
2023-12-28T01:35:34.090Z,95.90
2023-12-28T01:38:02.834Z,95.40
2023-12-28T01:40:31.077Z,95.50
2023-12-28T01:42:59.140Z,95.80
2023-12-28T01:45:27.329Z,95.60
2023-12-28T01:48:00.177Z,95.50
2023-12-28T01:50:28.909Z,95.50
2023-12-28T01:52:58.482Z,95.60
2023-12-28T01:55:27.334Z,95.70
2023-12-28T01:57:56.399Z,95.70
2023-12-28T02:00:24.811Z,95.60
2023-12-28T02:02:53.278Z,95.70
2023-12-28T02:05:23.587Z,95.80
2023-12-28T02:07:51.936Z,95.80
2023-12-28T02:10:19.825Z,95.80
2023-12-28T02:12:48.636Z,95.80
2023-12-28T02:15:16.769Z,95.80
2023-12-28T02:17:49.972Z,95.80
2023-12-28T02:20:18.627Z,95.90
2023-12-28T02:22:48.438Z,95.90
2023-12-28T02:25:20.506Z,95.90
2023-12-28T02:27:50.143Z,95.90
2023-12-28T02:30:19.760Z,95.90
2023-12-28T02:32:58.941Z,95.90
2023-12-28T02:35:34.724Z,95.90
2023-12-28T02:38:08.149Z,95.90
2023-12-28T02:40:39.959Z,96.00
2023-12-28T02:43:08.654Z,96.00
2023-12-28T02:45:37.065Z,96.00
2023-12-28T02:48:06.267Z,96.10
2023-12-28T02:50:35.096Z,96.10
2023-12-28T02:53:03.719Z,96.10
2023-12-28T02:55:34.506Z,96.00
2023-12-28T02:58:04.167Z,95.80
2023-12-28T03:00:32.892Z,95.90
2023-12-28T03:03:00.898Z,95.80
2023-12-28T03:05:28.869Z,95.80
2023-12-28T03:07:58.557Z,95.70
2023-12-28T03:10:26.958Z,95.60
2023-12-28T03:12:54.955Z,95.60
2023-12-28T03:15:24.387Z,95.60
2023-12-28T03:17:52.569Z,95.60
2023-12-28T03:20:20.698Z,95.60
2023-12-28T03:22:48.607Z,95.60
2023-12-28T03:25:16.727Z,95.60
2023-12-28T03:27:44.713Z,95.60
2023-12-28T03:30:13.926Z,95.60
2023-12-28T03:32:43.332Z,95.60
2023-12-28T03:35:11.267Z,95.60
2023-12-28T03:37:39.161Z,95.50
2023-12-28T03:40:08.919Z,95.50
2023-12-28T03:42:36.867Z,95.50
2023-12-28T03:45:06.406Z,95.50
2023-12-28T03:47:34.332Z,95.50
2023-12-28T03:50:03.834Z,95.50
2023-12-28T03:52:33.138Z,95.40
2023-12-28T03:55:01.125Z,95.40
2023-12-28T03:57:30.358Z,95.30
2023-12-28T03:59:58.606Z,95.30
2023-12-28T04:02:28.900Z,95.20
2023-12-28T04:04:58.970Z,95.20
2023-12-28T04:07:29.783Z,95.20
2023-12-28T04:09:59.825Z,95.10
2023-12-28T04:12:31.761Z,95.10
2023-12-28T04:14:59.718Z,95.10
2023-12-28T04:17:27.677Z,95.00
2023-12-28T04:19:55.883Z,95.00
2023-12-28T04:22:23.903Z,95.00
2023-12-28T04:24:53.801Z,95.00
2023-12-28T04:27:21.785Z,94.90
2023-12-28T04:29:49.803Z,95.00
2023-12-28T04:32:18.099Z,95.00
2023-12-28T04:34:46.010Z,94.90
2023-12-28T04:37:13.901Z,94.90
2023-12-28T04:39:41.884Z,94.90
2023-12-28T04:42:11.115Z,94.90
2023-12-28T04:44:40.394Z,94.90
2023-12-28T04:49:36.705Z,95.00
2023-12-28T04:52:05.143Z,95.00
2023-12-28T04:54:34.375Z,95.00
2023-12-28T04:57:02.324Z,94.90
2023-12-28T04:59:34.336Z,94.90
2023-12-28T05:02:02.621Z,94.80
2023-12-28T05:04:31.037Z,94.80
2023-12-28T05:06:59.072Z,94.80
2023-12-28T05:09:27.006Z,94.70
2023-12-28T05:11:55.005Z,94.70
2023-12-28T05:14:22.932Z,94.60
2023-12-28T05:16:52.532Z,94.60
2023-12-28T05:19:20.481Z,94.60
2023-12-28T05:21:48.522Z,94.50
2023-12-28T05:24:16.531Z,94.50
2023-12-28T05:26:44.440Z,94.40
2023-12-28T05:29:12.433Z,94.40
2023-12-28T05:31:40.582Z,94.20
2023-12-28T05:34:10.003Z,94.30
2023-12-28T05:36:38.546Z,94.20
2023-12-28T05:39:06.937Z,94.20
2023-12-28T05:41:34.815Z,94.20
2023-12-28T05:44:02.693Z,94.10
2023-12-28T05:46:30.916Z,94.00
2023-12-28T05:48:58.927Z,93.90
2023-12-28T05:51:28.271Z,93.90
2023-12-28T05:53:56.209Z,93.90
2023-12-28T05:56:24.098Z,93.90
2023-12-28T05:58:52.323Z,93.90
2023-12-28T06:01:20.284Z,93.80
2023-12-28T06:03:50.912Z,93.70
2023-12-28T06:06:18.988Z,93.70
2023-12-28T06:08:48.400Z,93.80
2023-12-28T06:11:16.662Z,93.60
2023-12-28T06:13:44.516Z,93.70
2023-12-28T06:16:12.789Z,93.60
2023-12-28T06:18:40.934Z,93.60
2023-12-28T06:21:10.449Z,93.60
2023-12-28T06:23:38.714Z,93.40
2023-12-28T06:26:08.723Z,93.40
2023-12-28T06:28:36.650Z,93.50
2023-12-28T06:31:05.892Z,93.80
2023-12-28T06:33:34.439Z,93.50
2023-12-28T06:36:07.395Z,93.40
2023-12-28T06:38:35.301Z,93.30
2023-12-28T06:41:03.270Z,93.40
2023-12-28T06:43:32.614Z,93.30
2023-12-28T06:46:00.601Z,93.20
2023-12-28T06:48:28.641Z,93.30
2023-12-28T06:50:58.188Z,93.30
2023-12-28T06:53:26.183Z,93.20
2023-12-28T06:55:54.108Z,93.10
2023-12-28T06:58:22.055Z,93.10
2023-12-28T07:00:51.980Z,93.10
2023-12-28T07:03:20.032Z,92.90
2023-12-28T07:05:47.986Z,93.00
2023-12-28T07:08:16.480Z,93.10
2023-12-28T07:10:44.339Z,92.90
2023-12-28T07:13:12.241Z,93.20
2023-12-28T07:15:40.184Z,92.90
2023-12-28T07:18:09.876Z,92.80
2023-12-28T07:20:37.800Z,92.80
2023-12-28T07:23:05.889Z,92.80
2023-12-28T07:25:34.528Z,92.70
2023-12-28T07:28:02.772Z,92.70
2023-12-28T07:30:30.974Z,92.80
2023-12-28T07:32:59.291Z,92.70
2023-12-28T07:35:28.662Z,92.70
2023-12-28T07:37:57.076Z,92.70
2023-12-28T07:40:25.236Z,92.70
2023-12-28T07:42:55.263Z,92.70
2023-12-28T07:45:25.551Z,93.50
2023-12-28T07:47:54.058Z,92.80
2023-12-28T07:50:22.258Z,93.00
2023-12-28T07:52:51.964Z,92.80
2023-12-28T07:55:20.493Z,92.80
2023-12-28T07:57:48.495Z,92.80
2023-12-28T08:00:17.007Z,92.90
2023-12-28T08:02:45.024Z,92.90
2023-12-28T08:05:13.743Z,92.80
2023-12-28T08:07:41.671Z,92.90
2023-12-28T08:10:11.697Z,92.90
2023-12-28T08:12:40.186Z,92.90
2023-12-28T08:15:09.287Z,92.90
2023-12-28T08:17:37.255Z,93.00
2023-12-28T08:20:06.121Z,92.90
2023-12-28T08:22:34.662Z,93.00
2023-12-28T08:25:02.766Z,93.00
2023-12-28T08:27:34.297Z,92.90
2023-12-28T08:30:02.177Z,92.80
2023-12-28T08:32:30.968Z,92.90
2023-12-28T08:34:59.016Z,93.00
2023-12-28T08:37:27.076Z,93.00
2023-12-28T08:39:56.481Z,92.70
2023-12-28T08:42:25.867Z,92.70
2023-12-28T08:44:55.273Z,92.80
2023-12-28T08:47:23.489Z,92.80
2023-12-28T08:49:52.299Z,92.90
2023-12-28T08:52:20.508Z,92.90
2023-12-28T08:54:48.727Z,92.50
2023-12-28T08:57:20.943Z,92.70
2023-12-28T08:59:54.752Z,92.70
2023-12-28T09:02:22.634Z,92.70
2023-12-28T09:04:50.856Z,92.60
2023-12-28T09:07:20.668Z,93.10
2023-12-28T09:09:48.750Z,92.70
2023-12-28T09:12:16.987Z,92.60
2023-12-28T09:14:45.148Z,92.60
2023-12-28T09:17:14.923Z,92.60
2023-12-28T09:19:43.571Z,92.40
2023-12-28T09:22:11.835Z,92.50
2023-12-28T09:24:39.861Z,92.50
2023-12-28T09:27:08.286Z,92.40
2023-12-28T09:29:36.218Z,92.50
2023-12-28T09:32:04.290Z,92.40
2023-12-28T09:34:34.064Z,92.40
2023-12-28T09:37:05.379Z,92.30
2023-12-28T09:39:33.382Z,92.40
2023-12-28T09:42:03.575Z,92.20
2023-12-28T09:44:32.991Z,92.40
2023-12-28T09:47:06.118Z,92.40
2023-12-28T09:49:37.600Z,92.20
2023-12-28T09:52:07.318Z,92.10
2023-12-28T09:54:36.410Z,92.20
2023-12-28T09:57:06.536Z,92.00
2023-12-28T09:59:35.380Z,91.90
2023-12-28T10:02:04.291Z,91.80
2023-12-28T10:04:32.810Z,91.80
2023-12-28T10:07:02.326Z,91.70
2023-12-28T10:09:31.685Z,91.50
2023-12-28T10:12:00.386Z,91.60
2023-12-28T10:14:28.626Z,91.80
2023-12-28T10:16:56.655Z,91.60
2023-12-28T10:19:25.288Z,91.40
2023-12-28T10:21:53.407Z,91.50
2023-12-28T10:24:23.179Z,91.40
2023-12-28T10:26:52.041Z,91.40
2023-12-28T10:29:19.923Z,91.20
2023-12-28T10:31:50.762Z,91.40
2023-12-28T10:34:20.170Z,91.20
2023-12-28T10:36:53.151Z,91.50
2023-12-28T10:39:24.765Z,91.40
2023-12-28T10:41:56.646Z,91.30
2023-12-28T10:44:28.873Z,91.30
2023-12-28T10:47:02.377Z,91.30
2023-12-28T10:49:37.380Z,91.30
2023-12-28T10:52:10.097Z,91.20
2023-12-28T10:54:49.131Z,91.20
2023-12-28T10:57:28.375Z,91.00
2023-12-28T11:00:04.532Z,91.00
2023-12-28T11:02:41.197Z,91.10
2023-12-28T11:05:09.850Z,91.00
2023-12-28T11:07:38.970Z,91.80
2023-12-28T11:10:11.291Z,91.10
2023-12-28T11:12:39.676Z,91.00
2023-12-28T11:15:10.951Z,90.90
2023-12-28T11:17:40.175Z,91.00
2023-12-28T11:20:10.935Z,90.80
2023-12-28T11:22:41.258Z,90.70
2023-12-28T11:25:17.014Z,90.60
2023-12-28T11:27:45.012Z,90.60
2023-12-28T11:30:15.518Z,90.80
2023-12-28T11:32:45.141Z,90.70
2023-12-28T11:35:15.354Z,90.70
2023-12-28T11:37:47.238Z,90.80
2023-12-28T11:40:20.682Z,90.80
2023-12-28T11:42:56.227Z,90.50
2023-12-28T11:45:26.357Z,90.60
2023-12-28T11:48:04.858Z,90.70
2023-12-28T11:50:34.134Z,90.50
2023-12-28T11:53:02.374Z,90.60
2023-12-28T11:55:33.182Z,90.70
2023-12-28T11:58:01.441Z,90.60
2023-12-28T12:00:29.864Z,90.50
2023-12-28T12:02:58.165Z,90.50
2023-12-28T12:05:26.398Z,90.50
2023-12-28T12:07:54.412Z,90.50
2023-12-28T12:10:22.663Z,90.50
2023-12-28T12:12:54.387Z,90.50
2023-12-28T12:15:22.625Z,90.40
2023-12-28T12:17:53.521Z,90.30
2023-12-28T12:20:22.221Z,90.60
2023-12-28T12:22:50.811Z,90.40
2023-12-28T12:25:20.742Z,90.30
2023-12-28T12:27:48.717Z,90.40
2023-12-28T12:30:18.412Z,90.10
2023-12-28T12:32:46.733Z,90.20
2023-12-28T12:35:21.800Z,90.20
2023-12-28T12:37:52.276Z,90.00
2023-12-28T12:40:22.187Z,90.10
2023-12-28T12:42:56.597Z,90.10
2023-12-28T12:45:26.523Z,90.00
2023-12-28T12:47:54.715Z,89.90
2023-12-28T12:50:22.697Z,90.10
2023-12-28T12:52:50.876Z,90.10
2023-12-28T12:55:19.690Z,90.10
2023-12-28T12:57:47.689Z,89.80
2023-12-28T13:00:16.462Z,90.00
2023-12-28T13:02:46.873Z,89.80
2023-12-28T13:05:14.907Z,89.00
2023-12-28T13:07:43.943Z,89.40
2023-12-28T13:10:12.783Z,89.80
2023-12-28T13:12:40.795Z,89.30
2023-12-28T13:15:10.829Z,89.40
2023-12-28T13:17:38.971Z,90.00
2023-12-28T13:20:09.564Z,89.20
2023-12-28T13:22:41.888Z,89.00
2023-12-28T13:25:12.897Z,88.90
2023-12-28T13:27:40.884Z,88.60
2023-12-28T13:30:09.994Z,88.80
2023-12-28T13:32:38.141Z,88.90
2023-12-28T13:35:08.385Z,89.00
2023-12-28T13:37:39.346Z,89.30
2023-12-28T13:40:09.209Z,89.10
2023-12-28T13:42:37.168Z,89.30
2023-12-28T13:45:06.130Z,89.40
2023-12-28T13:47:34.077Z,89.30
2023-12-28T13:50:02.178Z,89.00
2023-12-28T13:52:36.446Z,89.10
2023-12-28T13:55:04.957Z,89.30
2023-12-28T13:57:33.131Z,88.90
2023-12-28T14:00:02.140Z,89.20
2023-12-28T14:02:31.639Z,89.00
2023-12-28T14:05:00.041Z,89.10
2023-12-28T14:07:28.220Z,88.90
2023-12-28T14:09:57.653Z,88.90
2023-12-28T14:12:25.936Z,88.80
2023-12-28T14:14:53.879Z,89.10
2023-12-28T14:17:22.233Z,89.20
2023-12-28T14:19:53.273Z,89.20
2023-12-28T14:22:21.838Z,89.30
2023-12-28T14:24:50.777Z,89.40
2023-12-28T14:27:21.318Z,89.50
2023-12-28T14:29:51.934Z,89.60
2023-12-28T14:32:20.658Z,90.10
2023-12-28T14:34:51.876Z,90.20
2023-12-28T14:37:20.407Z,90.30
2023-12-28T14:39:48.349Z,90.50
2023-12-28T14:42:16.392Z,90.60
2023-12-28T14:44:45.806Z,90.80
2023-12-28T14:47:13.802Z,90.80
2023-12-28T14:49:46.724Z,90.90
2023-12-28T14:52:14.955Z,91.00
2023-12-28T14:54:42.876Z,90.90
2023-12-28T14:57:12.969Z,90.90
2023-12-28T14:59:41.321Z,91.00
2023-12-28T15:02:10.619Z,91.00
2023-12-28T15:04:42.677Z,91.10
2023-12-28T15:07:10.731Z,91.10
2023-12-28T15:09:38.913Z,91.10
2023-12-28T15:12:07.814Z,91.10
2023-12-28T15:14:36.301Z,91.10
2023-12-28T15:17:08.424Z,91.20
2023-12-28T15:19:40.010Z,91.20
2023-12-28T15:22:08.834Z,91.10
2023-12-28T15:24:37.924Z,91.10
2023-12-28T15:27:08.303Z,91.10
2023-12-28T15:29:36.897Z,91.00
2023-12-28T15:32:05.246Z,90.90
2023-12-28T15:34:33.761Z,91.00
2023-12-28T15:37:09.222Z,90.90
2023-12-28T15:39:37.797Z,90.90
2023-12-28T15:42:06.265Z,90.90
2023-12-28T15:44:34.191Z,90.90
2023-12-28T15:47:02.126Z,90.90
2023-12-28T15:49:30.967Z,90.90
2023-12-28T15:51:58.937Z,90.90
2023-12-28T15:54:29.903Z,90.90
2023-12-28T15:56:58.214Z,90.80
2023-12-28T15:59:26.189Z,90.50
2023-12-28T16:01:54.097Z,90.70
2023-12-28T16:04:22.248Z,90.70
2023-12-28T16:06:50.778Z,90.70
2023-12-28T16:09:18.730Z,90.70
2023-12-28T16:11:47.962Z,90.60
2023-12-28T16:14:20.159Z,90.50
2023-12-28T16:16:49.757Z,90.50
2023-12-28T16:19:18.396Z,90.50
2023-12-28T16:21:48.591Z,90.50
2023-12-28T16:24:17.652Z,90.50
2023-12-28T16:26:46.923Z,90.40
2023-12-28T16:29:14.859Z,90.30
2023-12-28T16:31:44.072Z,90.40
2023-12-28T16:34:15.474Z,90.40
2023-12-28T16:36:45.224Z,90.40
2023-12-28T16:39:15.998Z,90.40
2023-12-28T16:41:43.938Z,90.50
2023-12-28T16:44:15.535Z,90.40
2023-12-28T16:46:49.098Z,90.40
2023-12-28T16:49:18.575Z,90.40
2023-12-28T16:51:49.666Z,90.50
2023-12-28T16:54:18.480Z,90.50
2023-12-28T16:56:46.398Z,90.50
2023-12-28T16:59:16.535Z,90.40
2023-12-28T17:01:46.181Z,90.20
2023-12-28T17:04:14.927Z,90.40
2023-12-28T17:06:43.129Z,90.40
2023-12-28T17:09:11.255Z,90.40
2023-12-28T17:11:41.565Z,90.30
2023-12-28T17:14:10.050Z,90.30
2023-12-28T17:16:42.615Z,90.20
2023-12-28T17:19:11.145Z,90.20
2023-12-28T17:21:42.889Z,90.10
2023-12-28T17:24:15.907Z,90.20
2023-12-28T17:26:48.933Z,90.10
2023-12-28T17:29:17.122Z,90.00
2023-12-28T17:31:57.395Z,90.00
2023-12-28T17:34:25.760Z,90.00
2023-12-28T17:36:54.199Z,90.00
2023-12-28T17:39:24.141Z,90.00
2023-12-28T17:41:56.337Z,90.00
2023-12-28T17:44:26.797Z,89.80
2023-12-28T17:46:59.008Z,89.80
2023-12-28T17:49:29.501Z,89.70
2023-12-28T17:51:59.185Z,89.70
2023-12-28T17:54:27.832Z,89.70
2023-12-28T17:56:56.193Z,89.70
2023-12-28T17:59:29.704Z,89.90
2023-12-28T18:02:00.837Z,89.70
2023-12-28T18:04:31.034Z,89.50
2023-12-28T18:06:59.396Z,89.50
2023-12-28T18:09:28.343Z,89.60
2023-12-28T18:11:56.485Z,89.40
2023-12-28T18:14:24.573Z,89.30
2023-12-28T18:16:58.089Z,89.20
2023-12-28T18:19:27.418Z,89.30
2023-12-28T18:21:55.475Z,89.20
2023-12-28T18:24:24.222Z,89.20
2023-12-28T18:26:52.367Z,89.30
2023-12-28T18:29:20.342Z,89.40
2023-12-28T18:31:54.434Z,89.40
2023-12-28T18:34:22.384Z,89.40
2023-12-28T18:36:56.016Z,89.30
2023-12-28T18:39:28.673Z,89.00
2023-12-28T18:41:56.690Z,89.40
2023-12-28T18:44:24.805Z,89.60
2023-12-28T18:46:52.873Z,89.10
2023-12-28T18:49:20.837Z,89.30
2023-12-28T18:51:48.804Z,89.10
2023-12-28T18:54:18.093Z,89.20
2023-12-28T18:56:46.007Z,89.10
2023-12-28T18:59:13.861Z,89.80
2023-12-28T19:01:41.864Z,89.10
2023-12-28T19:04:09.995Z,89.30
2023-12-28T19:06:38.046Z,89.30
2023-12-28T19:09:06.286Z,89.20
2023-12-28T19:11:36.961Z,89.00
2023-12-28T19:14:04.841Z,89.10
2023-12-28T19:16:33.029Z,89.10
2023-12-28T19:19:01.042Z,88.90
2023-12-28T19:21:29.051Z,89.20
2023-12-28T19:23:57.464Z,89.10
2023-12-28T19:26:25.383Z,88.90
2023-12-28T19:28:55.312Z,88.90
2023-12-28T19:31:23.950Z,89.50
2023-12-28T19:33:52.693Z,89.10
2023-12-28T19:36:20.684Z,89.10
2023-12-28T19:38:48.631Z,89.00
2023-12-28T19:41:16.520Z,88.90
2023-12-28T19:43:47.235Z,89.00
2023-12-28T19:46:16.604Z,88.90
2023-12-28T19:48:44.686Z,88.90
2023-12-28T19:51:12.824Z,89.00
2023-12-28T19:53:41.588Z,88.90
2023-12-28T19:56:09.951Z,88.90
2023-12-28T19:58:37.803Z,88.90
2023-12-28T20:01:07.497Z,88.70
2023-12-28T20:03:37.006Z,88.60
2023-12-28T20:06:09.243Z,88.50
2023-12-28T20:08:40.221Z,88.70
2023-12-28T20:11:09.020Z,88.60
2023-12-28T20:13:36.959Z,88.60
2023-12-28T20:16:07.069Z,88.60
2023-12-28T20:18:36.668Z,88.70
2023-12-28T20:21:05.180Z,88.60
2023-12-28T20:23:33.130Z,88.80
2023-12-28T20:26:01.136Z,88.50
2023-12-28T20:28:29.073Z,88.60
2023-12-28T20:30:57.188Z,88.60
2023-12-28T20:33:25.354Z,88.40
2023-12-28T20:35:54.677Z,88.60
2023-12-28T20:38:22.631Z,88.40
2023-12-28T20:40:52.250Z,88.40
2023-12-28T20:43:20.292Z,88.50
2023-12-28T20:45:49.128Z,88.60
2023-12-28T20:48:17.543Z,88.40
2023-12-28T20:50:45.543Z,88.50
2023-12-28T20:53:14.921Z,88.50
2023-12-28T20:55:42.811Z,88.40
2023-12-28T20:58:10.823Z,88.20
2023-12-28T21:00:38.942Z,88.40
2023-12-28T21:03:06.853Z,88.40
2023-12-28T21:05:34.919Z,88.60
2023-12-28T21:08:02.970Z,88.50
2023-12-28T21:10:33.399Z,88.50
2023-12-28T21:13:05.176Z,88.50
2023-12-28T21:15:33.459Z,88.40
2023-12-28T21:18:12.327Z,89.10
2023-12-28T21:20:57.398Z,88.50
2023-12-28T21:23:32.411Z,88.40
2023-12-28T21:26:02.021Z,88.70
2023-12-28T21:28:29.929Z,88.40
2023-12-28T21:30:57.932Z,88.40
2023-12-28T21:33:26.196Z,88.30
2023-12-28T21:35:54.259Z,88.50
2023-12-28T21:38:22.330Z,88.60
2023-12-28T21:40:50.844Z,88.40
2023-12-28T21:43:20.153Z,88.40
2023-12-28T21:45:51.463Z,88.50
2023-12-28T21:48:19.820Z,88.60
2023-12-28T21:50:47.846Z,88.70
2023-12-28T21:53:18.941Z,88.60
2023-12-28T21:55:46.866Z,88.50
2023-12-28T21:58:15.115Z,88.60
2023-12-28T22:00:44.538Z,88.50
2023-12-28T22:03:13.831Z,88.50
2023-12-28T22:05:42.267Z,88.60
2023-12-28T22:08:10.347Z,88.40
2023-12-28T22:10:38.447Z,89.40
2023-12-28T22:13:07.675Z,88.70
2023-12-28T22:15:37.034Z,88.80
2023-12-28T22:18:08.959Z,88.60
2023-12-28T22:20:37.045Z,88.70
2023-12-28T22:23:05.214Z,88.90
2023-12-28T22:25:33.164Z,88.90
2023-12-28T22:28:01.207Z,89.00
2023-12-28T22:30:32.572Z,89.20
2023-12-28T22:33:01.089Z,89.30
2023-12-28T22:35:30.862Z,89.40
2023-12-28T22:37:58.884Z,89.60
2023-12-28T22:40:27.402Z,89.80
2023-12-28T22:42:56.606Z,90.00
2023-12-28T22:45:24.605Z,90.00
2023-12-28T22:47:52.593Z,90.00
2023-12-28T22:50:20.944Z,90.00
2023-12-28T22:52:52.496Z,90.00
2023-12-28T22:55:20.480Z,90.00
2023-12-28T22:57:48.425Z,90.00
2023-12-28T23:00:22.706Z,90.00
2023-12-28T23:02:51.381Z,90.10
2023-12-28T23:05:19.408Z,90.00
2023-12-28T23:07:47.380Z,90.10
2023-12-28T23:10:16.844Z,90.10
2023-12-28T23:12:44.813Z,90.30
2023-12-28T23:15:12.827Z,90.60
2023-12-28T23:17:40.786Z,90.80
2023-12-28T23:20:09.374Z,90.90
2023-12-28T23:22:37.401Z,91.10
2023-12-28T23:25:05.867Z,91.10
2023-12-28T23:27:35.381Z,91.10
2023-12-28T23:30:03.374Z,91.00
2023-12-28T23:32:32.015Z,90.90
2023-12-28T23:35:00.291Z,90.90
2023-12-28T23:37:28.311Z,90.90
2023-12-28T23:39:56.501Z,91.00
2023-12-28T23:42:24.556Z,91.00
2023-12-28T23:44:53.925Z,91.00
2023-12-28T23:47:21.882Z,90.90
2023-12-28T23:49:49.990Z,90.90
2023-12-28T23:52:18.077Z,90.90
2023-12-28T23:54:46.087Z,90.90
2023-12-28T23:57:13.982Z,90.80
2023-12-28T23:59:41.852Z,91.00
